< < Back
Terminal Aerodrome Forecast


Current Version              Previous Versions:   1  2  3  4  5  6  7  8  9  

Terminal Aerodrome Forecast

487
FTUS44 KOHX 280131 AAA
TAFBNA
TAF AMD
KBNA 280131Z 2802/2824 23003KT P6SM -RA FEW060 BKN150
     FM281200 19010KT P6SM VCSH BKN050 OVC120=

Latest METAR

529
SAUS70 KWBC 290100 RRE
MTRBNA
METAR KBNA 290053Z 21005KT 10SM SCT170 BKN190 25/16 A3009 RMK AO2 SLP182
T02500156


USA.gov is the U.S. government's official web portal to all federal, state and local government web resources and services.